sensor_id;sensor_type;location;lat;lon;timestamp;P1;durP1;ratioP1;P2;durP2;ratioP2
4575;SDS011;2300;51.874;8.430;2023-05-10T00:02:26;31.10;;;21.40;;
4575;SDS011;2300;51.874;8.430;2023-05-10T00:04:52;27.63;;;20.92;;
4575;SDS011;2300;51.874;8.430;2023-05-10T00:07:18;31.13;;;21.57;;
4575;SDS011;2300;51.874;8.430;2023-05-10T00:09:45;29.35;;;20.95;;
4575;SDS011;2300;51.874;8.430;2023-05-10T00:12:11;29.70;;;21.37;;
4575;SDS011;2300;51.874;8.430;2023-05-10T00:14:38;29.23;;;21.17;;
4575;SDS011;2300;51.874;8.430;2023-05-10T00:17:04;32.70;;;22.60;;
4575;SDS011;2300;51.874;8.430;2023-05-10T00:19:32;31.10;;;22.98;;
4575;SDS011;2300;51.874;8.430;2023-05-10T00:21:58;30.33;;;22.63;;
4575;SDS011;2300;51.874;8.430;2023-05-10T00:24:25;29.95;;;22.40;;
4575;SDS011;2300;51.874;8.430;2023-05-10T00:26:51;28.30;;;21.43;;
4575;SDS011;2300;51.874;8.430;2023-05-10T00:29:18;29.95;;;22.00;;
4575;SDS011;2300;51.874;8.430;2023-05-10T00:31:44;28.90;;;21.23;;
4575;SDS011;2300;51.874;8.430;2023-05-10T00:34:11;30.98;;;21.90;;
4575;SDS011;2300;51.874;8.430;2023-05-10T00:36:38;29.98;;;21.73;;
4575;SDS011;2300;51.874;8.430;2023-05-10T00:39:05;30.77;;;22.50;;
4575;SDS011;2300;51.874;8.430;2023-05-10T00:41:32;31.55;;;22.52;;
4575;SDS011;2300;51.874;8.430;2023-05-10T00:43:59;34.13;;;23.45;;
4575;SDS011;2300;51.874;8.430;2023-05-10T00:46:27;33.80;;;23.40;;
4575;SDS011;2300;51.874;8.430;2023-05-10T00:48:53;35.45;;;24.20;;
4575;SDS011;2300;51.874;8.430;2023-05-10T00:51:20;32.80;;;24.35;;
4575;SDS011;2300;51.874;8.430;2023-05-10T00:53:48;34.00;;;23.92;;
4575;SDS011;2300;51.874;8.430;2023-05-10T00:56:16;34.58;;;24.60;;
4575;SDS011;2300;51.874;8.430;2023-05-10T00:58:42;33.88;;;23.60;;
4575;SDS011;2300;51.874;8.430;2023-05-10T01:01:09;34.17;;;23.33;;
4575;SDS011;2300;51.874;8.430;2023-05-10T01:03:36;31.50;;;22.17;;
4575;SDS011;2300;51.874;8.430;2023-05-10T01:06:03;34.78;;;24.90;;
4575;SDS011;2300;51.874;8.430;2023-05-10T01:08:30;35.42;;;23.10;;
4575;SDS011;2300;51.874;8.430;2023-05-10T01:10:58;35.92;;;23.00;;
4575;SDS011;2300;51.874;8.430;2023-05-10T01:13:29;37.95;;;25.40;;
4575;SDS011;2300;51.874;8.430;2023-05-10T01:15:59;37.58;;;25.35;;
4575;SDS011;2300;51.874;8.430;2023-05-10T01:18:27;38.60;;;26.13;;
4575;SDS011;2300;51.874;8.430;2023-05-10T01:20:57;40.97;;;25.80;;
4575;SDS011;2300;51.874;8.430;2023-05-10T01:23:42;41.40;;;26.58;;
4575;SDS011;2300;51.874;8.430;2023-05-10T01:26:33;40.37;;;25.50;;
4575;SDS011;2300;51.874;8.430;2023-05-10T01:32:17;39.37;;;23.63;;
4575;SDS011;2300;51.874;8.430;2023-05-10T01:34:54;36.92;;;24.10;;
4575;SDS011;2300;51.874;8.430;2023-05-10T01:37:29;37.90;;;24.17;;
4575;SDS011;2300;51.874;8.430;2023-05-10T01:40:03;36.25;;;23.98;;
4575;SDS011;2300;51.874;8.430;2023-05-10T01:42:39;30.63;;;20.13;;
4575;SDS011;2300;51.874;8.430;2023-05-10T01:45:14;27.60;;;19.17;;
4575;SDS011;2300;51.874;8.430;2023-05-10T01:47:48;29.70;;;19.50;;
4575;SDS011;2300;51.874;8.430;2023-05-10T01:50:19;29.13;;;18.48;;
4575;SDS011;2300;51.874;8.430;2023-05-10T01:52:53;21.20;;;15.02;;
4575;SDS011;2300;51.874;8.430;2023-05-10T01:55:23;15.87;;;11.63;;
4575;SDS011;2300;51.874;8.430;2023-05-10T01:57:55;15.75;;;10.70;;
4575;SDS011;2300;51.874;8.430;2023-05-10T02:00:26;12.95;;;9.73;;
4575;SDS011;2300;51.874;8.430;2023-05-10T02:02:56;18.20;;;10.57;;
4575;SDS011;2300;51.874;8.430;2023-05-10T02:05:23;13.40;;;9.67;;
4575;SDS011;2300;51.874;8.430;2023-05-10T02:07:51;14.40;;;10.67;;
4575;SDS011;2300;51.874;8.430;2023-05-10T02:10:18;15.53;;;11.93;;
4575;SDS011;2300;51.874;8.430;2023-05-10T02:12:47;16.10;;;10.90;;
4575;SDS011;2300;51.874;8.430;2023-05-10T02:15:15;16.07;;;10.70;;
4575;SDS011;2300;51.874;8.430;2023-05-10T02:17:46;13.53;;;9.20;;
4575;SDS011;2300;51.874;8.430;2023-05-10T02:20:14;11.47;;;8.10;;
4575;SDS011;2300;51.874;8.430;2023-05-10T02:22:42;11.70;;;8.20;;
4575;SDS011;2300;51.874;8.430;2023-05-10T02:25:10;11.57;;;8.07;;
4575;SDS011;2300;51.874;8.430;2023-05-10T02:27:40;12.88;;;7.95;;
4575;SDS011;2300;51.874;8.430;2023-05-10T02:30:09;11.20;;;7.80;;
4575;SDS011;2300;51.874;8.430;2023-05-10T02:32:36;12.50;;;8.43;;
4575;SDS011;2300;51.874;8.430;2023-05-10T02:35:04;16.23;;;9.90;;
4575;SDS011;2300;51.874;8.430;2023-05-10T02:37:33;17.90;;;10.47;;
4575;SDS011;2300;51.874;8.430;2023-05-10T02:40:02;22.63;;;12.77;;
4575;SDS011;2300;51.874;8.430;2023-05-10T02:42:31;22.80;;;13.20;;
4575;SDS011;2300;51.874;8.430;2023-05-10T02:45:01;26.23;;;15.57;;
4575;SDS011;2300;51.874;8.430;2023-05-10T02:47:31;25.93;;;15.57;;
4575;SDS011;2300;51.874;8.430;2023-05-10T02:49:58;29.93;;;16.50;;
4575;SDS011;2300;51.874;8.430;2023-05-10T02:52:27;33.65;;;16.83;;
4575;SDS011;2300;51.874;8.430;2023-05-10T02:54:58;31.93;;;18.03;;
4575;SDS011;2300;51.874;8.430;2023-05-10T02:57:30;29.90;;;17.67;;
4575;SDS011;2300;51.874;8.430;2023-05-10T02:59:59;31.90;;;17.63;;
4575;SDS011;2300;51.874;8.430;2023-05-10T03:02:27;34.87;;;19.07;;
4575;SDS011;2300;51.874;8.430;2023-05-10T03:04:55;29.67;;;17.47;;
4575;SDS011;2300;51.874;8.430;2023-05-10T03:07:21;32.77;;;18.43;;
4575;SDS011;2300;51.874;8.430;2023-05-10T03:09:48;37.10;;;19.57;;
4575;SDS011;2300;51.874;8.430;2023-05-10T03:12:19;36.23;;;20.00;;
4575;SDS011;2300;51.874;8.430;2023-05-10T03:14:53;34.17;;;20.50;;
4575;SDS011;2300;51.874;8.430;2023-05-10T03:17:29;35.22;;;20.38;;
4575;SDS011;2300;51.874;8.430;2023-05-10T03:20:03;34.70;;;19.98;;
4575;SDS011;2300;51.874;8.430;2023-05-10T03:22:34;35.60;;;20.67;;
4575;SDS011;2300;51.874;8.430;2023-05-10T03:25:04;38.93;;;21.87;;
4575;SDS011;2300;51.874;8.430;2023-05-10T03:27:34;39.33;;;22.30;;
4575;SDS011;2300;51.874;8.430;2023-05-10T03:30:02;41.33;;;21.60;;
4575;SDS011;2300;51.874;8.430;2023-05-10T03:32:30;36.47;;;19.27;;
4575;SDS011;2300;51.874;8.430;2023-05-10T03:34:59;33.40;;;18.08;;
4575;SDS011;2300;51.874;8.430;2023-05-10T03:37:26;35.40;;;18.53;;
4575;SDS011;2300;51.874;8.430;2023-05-10T03:39:52;28.45;;;17.75;;
4575;SDS011;2300;51.874;8.430;2023-05-10T03:42:19;30.10;;;17.03;;
4575;SDS011;2300;51.874;8.430;2023-05-10T03:44:47;29.03;;;16.87;;
4575;SDS011;2300;51.874;8.430;2023-05-10T03:47:14;22.23;;;13.67;;
4575;SDS011;2300;51.874;8.430;2023-05-10T03:49:40;19.83;;;12.13;;
4575;SDS011;2300;51.874;8.430;2023-05-10T03:52:07;18.47;;;11.27;;
4575;SDS011;2300;51.874;8.430;2023-05-10T03:54:33;13.77;;;9.43;;
4575;SDS011;2300;51.874;8.430;2023-05-10T03:57:00;10.83;;;7.20;;
4575;SDS011;2300;51.874;8.430;2023-05-10T03:59:27;8.43;;;5.07;;
4575;SDS011;2300;51.874;8.430;2023-05-10T04:01:56;6.83;;;4.70;;
4575;SDS011;2300;51.874;8.430;2023-05-10T04:04:22;5.17;;;3.70;;
4575;SDS011;2300;51.874;8.430;2023-05-10T04:06:49;5.17;;;3.43;;
4575;SDS011;2300;51.874;8.430;2023-05-10T04:09:15;4.40;;;3.43;;
4575;SDS011;2300;51.874;8.430;2023-05-10T04:11:42;4.43;;;3.43;;
4575;SDS011;2300;51.874;8.430;2023-05-10T04:14:08;5.57;;;3.57;;
4575;SDS011;2300;51.874;8.430;2023-05-10T04:16:35;5.47;;;3.77;;
4575;SDS011;2300;51.874;8.430;2023-05-10T04:19:03;5.83;;;3.77;;
4575;SDS011;2300;51.874;8.430;2023-05-10T04:21:30;4.60;;;3.43;;
4575;SDS011;2300;51.874;8.430;2023-05-10T04:23:56;7.50;;;4.30;;
4575;SDS011;2300;51.874;8.430;2023-05-10T04:26:23;4.80;;;3.83;;
4575;SDS011;2300;51.874;8.430;2023-05-10T04:28:50;5.37;;;3.90;;
4575;SDS011;2300;51.874;8.430;2023-05-10T04:31:16;5.73;;;4.53;;
4575;SDS011;2300;51.874;8.430;2023-05-10T04:33:43;7.37;;;5.07;;
4575;SDS011;2300;51.874;8.430;2023-05-10T04:36:11;5.73;;;4.93;;
4575;SDS011;2300;51.874;8.430;2023-05-10T04:38:37;6.90;;;5.07;;
4575;SDS011;2300;51.874;8.430;2023-05-10T04:41:04;8.67;;;5.57;;
4575;SDS011;2300;51.874;8.430;2023-05-10T04:43:31;6.70;;;5.20;;
4575;SDS011;2300;51.874;8.430;2023-05-10T04:45:57;8.40;;;6.23;;
4575;SDS011;2300;51.874;8.430;2023-05-10T04:48:24;8.07;;;6.33;;
4575;SDS011;2300;51.874;8.430;2023-05-10T04:50:51;8.03;;;6.00;;
4575;SDS011;2300;51.874;8.430;2023-05-10T04:53:19;8.00;;;5.57;;
4575;SDS011;2300;51.874;8.430;2023-05-10T04:55:46;9.37;;;6.23;;
4575;SDS011;2300;51.874;8.430;2023-05-10T04:58:13;8.30;;;5.97;;
4575;SDS011;2300;51.874;8.430;2023-05-10T05:00:39;8.13;;;5.40;;
4575;SDS011;2300;51.874;8.430;2023-05-10T05:03:06;9.20;;;6.47;;
4575;SDS011;2300;51.874;8.430;2023-05-10T05:05:33;7.67;;;5.97;;
4575;SDS011;2300;51.874;8.430;2023-05-10T05:07:59;9.07;;;6.53;;
4575;SDS011;2300;51.874;8.430;2023-05-10T05:10:27;9.47;;;5.60;;
4575;SDS011;2300;51.874;8.430;2023-05-10T05:12:53;7.53;;;5.00;;
4575;SDS011;2300;51.874;8.430;2023-05-10T05:15:20;20.07;;;5.57;;
4575;SDS011;2300;51.874;8.430;2023-05-10T05:17:46;8.07;;;5.40;;
4575;SDS011;2300;51.874;8.430;2023-05-10T05:20:13;7.97;;;6.00;;
4575;SDS011;2300;51.874;8.430;2023-05-10T05:22:40;7.90;;;5.67;;
4575;SDS011;2300;51.874;8.430;2023-05-10T05:25:07;8.67;;;5.20;;
4575;SDS011;2300;51.874;8.430;2023-05-10T05:27:35;7.53;;;5.10;;
4575;SDS011;2300;51.874;8.430;2023-05-10T05:30:01;8.87;;;5.50;;
4575;SDS011;2300;51.874;8.430;2023-05-10T05:32:29;8.00;;;5.20;;
4575;SDS011;2300;51.874;8.430;2023-05-10T05:34:55;8.70;;;5.67;;
4575;SDS011;2300;51.874;8.430;2023-05-10T05:37:22;8.17;;;5.57;;
4575;SDS011;2300;51.874;8.430;2023-05-10T05:39:49;8.43;;;4.87;;
4575;SDS011;2300;51.874;8.430;2023-05-10T05:42:15;7.73;;;5.00;;
4575;SDS011;2300;51.874;8.430;2023-05-10T05:44:45;7.50;;;5.33;;
4575;SDS011;2300;51.874;8.430;2023-05-10T05:47:11;8.03;;;4.93;;
4575;SDS011;2300;51.874;8.430;2023-05-10T05:49:38;7.87;;;5.23;;
4575;SDS011;2300;51.874;8.430;2023-05-10T05:52:04;10.37;;;5.03;;
4575;SDS011;2300;51.874;8.430;2023-05-10T05:54:31;7.30;;;5.03;;
4575;SDS011;2300;51.874;8.430;2023-05-10T05:56:58;10.77;;;5.63;;
4575;SDS011;2300;51.874;8.430;2023-05-10T05:59:25;8.03;;;5.20;;
4575;SDS011;2300;51.874;8.430;2023-05-10T06:01:53;8.67;;;5.00;;
4575;SDS011;2300;51.874;8.430;2023-05-10T06:04:20;7.47;;;5.30;;
4575;SDS011;2300;51.874;8.430;2023-05-10T06:06:47;8.23;;;5.37;;
4575;SDS011;2300;51.874;8.430;2023-05-10T06:09:13;10.07;;;5.67;;
4575;SDS011;2300;51.874;8.430;2023-05-10T06:11:40;7.93;;;5.03;;
4575;SDS011;2300;51.874;8.430;2023-05-10T06:14:06;8.53;;;5.33;;
4575;SDS011;2300;51.874;8.430;2023-05-10T06:16:33;7.87;;;5.17;;
4575;SDS011;2300;51.874;8.430;2023-05-10T06:19:01;7.97;;;5.23;;
4575;SDS011;2300;51.874;8.430;2023-05-10T06:21:27;9.47;;;5.50;;
4575;SDS011;2300;51.874;8.430;2023-05-10T06:23:54;11.20;;;5.70;;
4575;SDS011;2300;51.874;8.430;2023-05-10T06:26:20;15.03;;;6.17;;
4575;SDS011;2300;51.874;8.430;2023-05-10T06:28:47;13.63;;;6.40;;
4575;SDS011;2300;51.874;8.430;2023-05-10T06:31:13;15.68;;;6.80;;
4575;SDS011;2300;51.874;8.430;2023-05-10T06:33:41;14.03;;;6.10;;
4575;SDS011;2300;51.874;8.430;2023-05-10T06:36:08;15.73;;;7.03;;
4575;SDS011;2300;51.874;8.430;2023-05-10T06:38:35;16.75;;;7.68;;
4575;SDS011;2300;51.874;8.430;2023-05-10T06:41:02;17.90;;;8.17;;
4575;SDS011;2300;51.874;8.430;2023-05-10T06:43:28;16.77;;;8.07;;
4575;SDS011;2300;51.874;8.430;2023-05-10T06:45:55;20.30;;;9.63;;
4575;SDS011;2300;51.874;8.430;2023-05-10T06:48:22;22.42;;;9.13;;
4575;SDS011;2300;51.874;8.430;2023-05-10T06:50:48;23.63;;;10.80;;
4575;SDS011;2300;51.874;8.430;2023-05-10T06:53:16;25.80;;;10.97;;
4575;SDS011;2300;51.874;8.430;2023-05-10T06:55:43;22.88;;;11.70;;
4575;SDS011;2300;51.874;8.430;2023-05-10T06:58:10;26.87;;;12.00;;
4575;SDS011;2300;51.874;8.430;2023-05-10T07:00:37;25.20;;;11.45;;
4575;SDS011;2300;51.874;8.430;2023-05-10T07:03:05;21.77;;;10.50;;
4575;SDS011;2300;51.874;8.430;2023-05-10T07:05:32;18.27;;;9.57;;
4575;SDS011;2300;51.874;8.430;2023-05-10T07:07:58;20.53;;;10.43;;
4575;SDS011;2300;51.874;8.430;2023-05-10T07:10:26;18.33;;;9.03;;
4575;SDS011;2300;51.874;8.430;2023-05-10T07:12:53;17.02;;;9.48;;
4575;SDS011;2300;51.874;8.430;2023-05-10T07:15:19;15.67;;;9.40;;
4575;SDS011;2300;51.874;8.430;2023-05-10T07:17:46;14.60;;;8.98;;
4575;SDS011;2300;51.874;8.430;2023-05-10T07:20:13;18.15;;;9.63;;
4575;SDS011;2300;51.874;8.430;2023-05-10T07:22:39;16.25;;;9.43;;
4575;SDS011;2300;51.874;8.430;2023-05-10T07:25:06;15.17;;;9.20;;
4575;SDS011;2300;51.874;8.430;2023-05-10T07:27:34;14.98;;;9.15;;
4575;SDS011;2300;51.874;8.430;2023-05-10T07:30:01;16.85;;;11.30;;
4575;SDS011;2300;51.874;8.430;2023-05-10T07:32:27;17.90;;;9.77;;
4575;SDS011;2300;51.874;8.430;2023-05-10T07:34:55;16.40;;;10.45;;
4575;SDS011;2300;51.874;8.430;2023-05-10T07:37:21;18.25;;;10.93;;
4575;SDS011;2300;51.874;8.430;2023-05-10T07:39:48;20.42;;;12.38;;
4575;SDS011;2300;51.874;8.430;2023-05-10T07:42:14;20.65;;;12.68;;
4575;SDS011;2300;51.874;8.430;2023-05-10T07:44:43;19.10;;;11.75;;
4575;SDS011;2300;51.874;8.430;2023-05-10T07:47:10;20.55;;;12.82;;
4575;SDS011;2300;51.874;8.430;2023-05-10T07:49:37;24.58;;;14.30;;
4575;SDS011;2300;51.874;8.430;2023-05-10T07:52:03;19.00;;;12.77;;
4575;SDS011;2300;51.874;8.430;2023-05-10T07:54:30;22.00;;;14.48;;
4575;SDS011;2300;51.874;8.430;2023-05-10T07:56:56;20.88;;;13.25;;
4575;SDS011;2300;51.874;8.430;2023-05-10T07:59:23;23.85;;;14.38;;
4575;SDS011;2300;51.874;8.430;2023-05-10T08:01:51;24.65;;;14.88;;
4575;SDS011;2300;51.874;8.430;2023-05-10T08:04:17;26.20;;;16.40;;
4575;SDS011;2300;51.874;8.430;2023-05-10T08:06:44;26.60;;;16.15;;
4575;SDS011;2300;51.874;8.430;2023-05-10T08:09:10;26.02;;;16.48;;
4575;SDS011;2300;51.874;8.430;2023-05-10T08:11:37;24.17;;;15.27;;
4575;SDS011;2300;51.874;8.430;2023-05-10T08:14:03;24.25;;;15.85;;
4575;SDS011;2300;51.874;8.430;2023-05-10T08:16:30;25.20;;;16.88;;
4575;SDS011;2300;51.874;8.430;2023-05-10T08:18:58;26.65;;;17.08;;
4575;SDS011;2300;51.874;8.430;2023-05-10T08:21:25;26.38;;;17.92;;
4575;SDS011;2300;51.874;8.430;2023-05-10T08:23:51;26.70;;;18.23;;
4575;SDS011;2300;51.874;8.430;2023-05-10T08:26:18;29.05;;;19.33;;
4575;SDS011;2300;51.874;8.430;2023-05-10T08:28:46;28.00;;;19.20;;
4575;SDS011;2300;51.874;8.430;2023-05-10T08:31:13;30.48;;;20.13;;
4575;SDS011;2300;51.874;8.430;2023-05-10T08:33:40;30.27;;;19.60;;
4575;SDS011;2300;51.874;8.430;2023-05-10T08:36:08;30.65;;;20.30;;
4575;SDS011;2300;51.874;8.430;2023-05-10T08:38:34;29.95;;;19.98;;
4575;SDS011;2300;51.874;8.430;2023-05-10T08:41:01;35.28;;;22.05;;
4575;SDS011;2300;51.874;8.430;2023-05-10T08:43:28;35.78;;;22.83;;
4575;SDS011;2300;51.874;8.430;2023-05-10T08:45:55;36.90;;;21.85;;
4575;SDS011;2300;51.874;8.430;2023-05-10T08:48:22;34.92;;;21.80;;
4575;SDS011;2300;51.874;8.430;2023-05-10T08:50:49;38.55;;;24.85;;
4575;SDS011;2300;51.874;8.430;2023-05-10T08:53:20;40.03;;;24.73;;
4575;SDS011;2300;51.874;8.430;2023-05-10T08:55:48;40.40;;;23.33;;
4575;SDS011;2300;51.874;8.430;2023-05-10T08:58:14;40.63;;;25.30;;
4575;SDS011;2300;51.874;8.430;2023-05-10T09:00:41;43.50;;;25.27;;
4575;SDS011;2300;51.874;8.430;2023-05-10T09:03:07;38.70;;;24.08;;
4575;SDS011;2300;51.874;8.430;2023-05-10T09:05:37;42.40;;;25.23;;
4575;SDS011;2300;51.874;8.430;2023-05-10T09:08:04;40.80;;;24.55;;
4575;SDS011;2300;51.874;8.430;2023-05-10T09:10:39;35.55;;;23.08;;
4575;SDS011;2300;51.874;8.430;2023-05-10T09:13:07;31.83;;;21.60;;
4575;SDS011;2300;51.874;8.430;2023-05-10T09:15:35;30.52;;;21.05;;
4575;SDS011;2300;51.874;8.430;2023-05-10T09:18:02;32.58;;;21.67;;
4575;SDS011;2300;51.874;8.430;2023-05-10T09:20:29;32.90;;;21.67;;
4575;SDS011;2300;51.874;8.430;2023-05-10T09:22:56;33.22;;;22.88;;
4575;SDS011;2300;51.874;8.430;2023-05-10T09:25:22;31.95;;;21.85;;
4575;SDS011;2300;51.874;8.430;2023-05-10T09:27:51;31.55;;;21.65;;
4575;SDS011;2300;51.874;8.430;2023-05-10T09:30:23;32.38;;;20.17;;
4575;SDS011;2300;51.874;8.430;2023-05-10T09:32:57;31.50;;;20.92;;
4575;SDS011;2300;51.874;8.430;2023-05-10T09:35:25;31.02;;;21.15;;
4575;SDS011;2300;51.874;8.430;2023-05-10T09:37:53;27.13;;;19.55;;
4575;SDS011;2300;51.874;8.430;2023-05-10T09:40:24;28.98;;;20.48;;
4575;SDS011;2300;51.874;8.430;2023-05-10T09:42:54;31.00;;;21.60;;
4575;SDS011;2300;51.874;8.430;2023-05-10T09:45:24;31.60;;;20.80;;
4575;SDS011;2300;51.874;8.430;2023-05-10T09:47:53;29.00;;;20.40;;
4575;SDS011;2300;51.874;8.430;2023-05-10T09:50:19;28.77;;;21.13;;
4575;SDS011;2300;51.874;8.430;2023-05-10T09:52:48;30.02;;;21.05;;
4575;SDS011;2300;51.874;8.430;2023-05-10T09:55:16;28.77;;;19.77;;
4575;SDS011;2300;51.874;8.430;2023-05-10T09:57:45;25.88;;;17.98;;
4575;SDS011;2300;51.874;8.430;2023-05-10T10:00:17;26.33;;;17.27;;
4575;SDS011;2300;51.874;8.430;2023-05-10T10:02:45;24.77;;;16.92;;
4575;SDS011;2300;51.874;8.430;2023-05-10T10:05:14;22.88;;;16.27;;
4575;SDS011;2300;51.874;8.430;2023-05-10T10:07:41;24.20;;;16.90;;
4575;SDS011;2300;51.874;8.430;2023-05-10T10:10:08;23.23;;;16.58;;
4575;SDS011;2300;51.874;8.430;2023-05-10T10:12:37;24.52;;;16.27;;
4575;SDS011;2300;51.874;8.430;2023-05-10T10:15:04;26.33;;;17.55;;
4575;SDS011;2300;51.874;8.430;2023-05-10T10:17:34;28.33;;;18.83;;
4575;SDS011;2300;51.874;8.430;2023-05-10T10:20:02;29.65;;;19.92;;
4575;SDS011;2300;51.874;8.430;2023-05-10T10:22:29;28.90;;;19.23;;
4575;SDS011;2300;51.874;8.430;2023-05-10T10:24:58;31.08;;;20.63;;
4575;SDS011;2300;51.874;8.430;2023-05-10T10:27:26;27.08;;;19.27;;
4575;SDS011;2300;51.874;8.430;2023-05-10T10:30:02;28.77;;;19.17;;
4575;SDS011;2300;51.874;8.430;2023-05-10T10:32:49;28.13;;;19.15;;
4575;SDS011;2300;51.874;8.430;2023-05-10T10:35:32;29.48;;;18.38;;
4575;SDS011;2300;51.874;8.430;2023-05-10T10:38:00;22.08;;;15.48;;
4575;SDS011;2300;51.874;8.430;2023-05-10T10:40:28;20.65;;;14.95;;
4575;SDS011;2300;51.874;8.430;2023-05-10T10:42:56;20.10;;;14.73;;
4575;SDS011;2300;51.874;8.430;2023-05-10T10:45:34;22.50;;;15.65;;
4575;SDS011;2300;51.874;8.430;2023-05-10T10:50:58;22.20;;;15.00;;
4575;SDS011;2300;51.874;8.430;2023-05-10T10:53:26;21.90;;;13.88;;
4575;SDS011;2300;51.874;8.430;2023-05-10T10:56:02;17.15;;;11.77;;
4575;SDS011;2300;51.874;8.430;2023-05-10T10:58:33;16.30;;;12.50;;
4575;SDS011;2300;51.874;8.430;2023-05-10T11:01:13;16.23;;;10.88;;
4575;SDS011;2300;51.874;8.430;2023-05-10T11:06:45;15.55;;;9.88;;
4575;SDS011;2300;51.874;8.430;2023-05-10T11:09:13;16.55;;;11.40;;
4575;SDS011;2300;51.874;8.430;2023-05-10T11:11:48;15.98;;;11.32;;
4575;SDS011;2300;51.874;8.430;2023-05-10T11:14:15;17.60;;;11.90;;
4575;SDS011;2300;51.874;8.430;2023-05-10T11:16:47;16.67;;;11.25;;
4575;SDS011;2300;51.874;8.430;2023-05-10T11:19:15;15.60;;;11.02;;
4575;SDS011;2300;51.874;8.430;2023-05-10T11:21:46;17.42;;;11.38;;
4575;SDS011;2300;51.874;8.430;2023-05-10T11:24:15;17.30;;;12.00;;
4575;SDS011;2300;51.874;8.430;2023-05-10T11:26:43;19.02;;;11.95;;
4575;SDS011;2300;51.874;8.430;2023-05-10T11:29:10;19.33;;;12.98;;
4575;SDS011;2300;51.874;8.430;2023-05-10T11:31:42;22.58;;;14.43;;
4575;SDS011;2300;51.874;8.430;2023-05-10T11:34:11;20.35;;;13.25;;
4575;SDS011;2300;51.874;8.430;2023-05-10T11:39:16;20.65;;;13.82;;
4575;SDS011;2300;51.874;8.430;2023-05-10T11:41:43;18.95;;;14.02;;
4575;SDS011;2300;51.874;8.430;2023-05-10T11:44:15;20.45;;;14.30;;
4575;SDS011;2300;51.874;8.430;2023-05-10T11:46:44;20.45;;;13.13;;
4575;SDS011;2300;51.874;8.430;2023-05-10T11:49:10;16.92;;;12.07;;
4575;SDS011;2300;51.874;8.430;2023-05-10T11:51:38;16.73;;;11.80;;
4575;SDS011;2300;51.874;8.430;2023-05-10T11:54:08;15.63;;;10.98;;
4575;SDS011;2300;51.874;8.430;2023-05-10T11:56:36;17.25;;;11.60;;
4575;SDS011;2300;51.874;8.430;2023-05-10T11:59:04;20.05;;;13.43;;
4575;SDS011;2300;51.874;8.430;2023-05-10T12:01:31;19.77;;;14.95;;
4575;SDS011;2300;51.874;8.430;2023-05-10T12:03:59;20.33;;;13.80;;
4575;SDS011;2300;51.874;8.430;2023-05-10T12:06:26;18.25;;;13.70;;
4575;SDS011;2300;51.874;8.430;2023-05-10T12:08:55;19.60;;;13.57;;
4575;SDS011;2300;51.874;8.430;2023-05-10T12:11:25;21.10;;;14.30;;
4575;SDS011;2300;51.874;8.430;2023-05-10T12:13:53;24.05;;;14.50;;
4575;SDS011;2300;51.874;8.430;2023-05-10T12:16:29;21.65;;;14.18;;
4575;SDS011;2300;51.874;8.430;2023-05-10T12:19:11;22.58;;;14.23;;
4575;SDS011;2300;51.874;8.430;2023-05-10T12:21:44;20.90;;;14.13;;
4575;SDS011;2300;51.874;8.430;2023-05-10T12:24:10;23.02;;;14.88;;
4575;SDS011;2300;51.874;8.430;2023-05-10T12:29:47;28.00;;;17.45;;
4575;SDS011;2300;51.874;8.430;2023-05-10T12:32:16;28.17;;;17.40;;
4575;SDS011;2300;51.874;8.430;2023-05-10T12:34:42;24.33;;;16.60;;
4575;SDS011;2300;51.874;8.430;2023-05-10T12:37:13;26.05;;;14.90;;
4575;SDS011;2300;51.874;8.430;2023-05-10T12:39:45;22.35;;;12.15;;
4575;SDS011;2300;51.874;8.430;2023-05-10T12:42:11;21.70;;;14.00;;
4575;SDS011;2300;51.874;8.430;2023-05-10T12:44:38;21.50;;;14.00;;
4575;SDS011;2300;51.874;8.430;2023-05-10T12:47:06;19.42;;;13.15;;
4575;SDS011;2300;51.874;8.430;2023-05-10T12:49:33;18.75;;;12.38;;
4575;SDS011;2300;51.874;8.430;2023-05-10T12:51:59;21.10;;;13.15;;
4575;SDS011;2300;51.874;8.430;2023-05-10T12:54:26;18.20;;;11.55;;
4575;SDS011;2300;51.874;8.430;2023-05-10T12:56:54;18.13;;;12.77;;
4575;SDS011;2300;51.874;8.430;2023-05-10T12:59:27;17.20;;;11.57;;
4575;SDS011;2300;51.874;8.430;2023-05-10T13:01:53;17.67;;;11.43;;
4575;SDS011;2300;51.874;8.430;2023-05-10T13:04:21;16.88;;;11.48;;
4575;SDS011;2300;51.874;8.430;2023-05-10T13:06:48;18.50;;;11.95;;
4575;SDS011;2300;51.874;8.430;2023-05-10T13:09:14;19.63;;;12.82;;
4575;SDS011;2300;51.874;8.430;2023-05-10T13:11:43;16.42;;;11.40;;
4575;SDS011;2300;51.874;8.430;2023-05-10T13:14:10;21.27;;;12.32;;
4575;SDS011;2300;51.874;8.430;2023-05-10T13:16:36;18.63;;;12.35;;
4575;SDS011;2300;51.874;8.430;2023-05-10T13:19:04;23.95;;;13.95;;
4575;SDS011;2300;51.874;8.430;2023-05-10T13:21:32;20.25;;;13.27;;
4575;SDS011;2300;51.874;8.430;2023-05-10T13:23:59;20.83;;;14.55;;
4575;SDS011;2300;51.874;8.430;2023-05-10T13:26:26;25.70;;;15.93;;
4575;SDS011;2300;51.874;8.430;2023-05-10T13:28:53;27.15;;;17.05;;
4575;SDS011;2300;51.874;8.430;2023-05-10T13:31:20;28.50;;;17.80;;
4575;SDS011;2300;51.874;8.430;2023-05-10T13:33:47;26.50;;;17.30;;
4575;SDS011;2300;51.874;8.430;2023-05-10T13:36:13;30.05;;;18.48;;
4575;SDS011;2300;51.874;8.430;2023-05-10T13:38:41;28.33;;;19.27;;
4575;SDS011;2300;51.874;8.430;2023-05-10T13:41:07;31.23;;;20.90;;
4575;SDS011;2300;51.874;8.430;2023-05-10T13:43:36;33.28;;;19.75;;
4575;SDS011;2300;51.874;8.430;2023-05-10T13:46:02;31.23;;;19.58;;
4575;SDS011;2300;51.874;8.430;2023-05-10T13:48:30;32.05;;;19.00;;
4575;SDS011;2300;51.874;8.430;2023-05-10T13:50:57;33.75;;;20.10;;
4575;SDS011;2300;51.874;8.430;2023-05-10T13:53:23;26.38;;;18.75;;
4575;SDS011;2300;51.874;8.430;2023-05-10T13:55:53;29.27;;;17.80;;
4575;SDS011;2300;51.874;8.430;2023-05-10T13:58:20;30.08;;;19.05;;
4575;SDS011;2300;51.874;8.430;2023-05-10T14:00:46;29.33;;;18.42;;
4575;SDS011;2300;51.874;8.430;2023-05-10T14:03:13;30.60;;;18.02;;
4575;SDS011;2300;51.874;8.430;2023-05-10T14:05:39;27.15;;;17.35;;
4575;SDS011;2300;51.874;8.430;2023-05-10T14:08:05;26.77;;;16.40;;
4575;SDS011;2300;51.874;8.430;2023-05-10T14:10:34;24.55;;;16.25;;
4575;SDS011;2300;51.874;8.430;2023-05-10T14:13:02;24.83;;;16.52;;
4575;SDS011;2300;51.874;8.430;2023-05-10T14:15:28;26.52;;;17.17;;
4575;SDS011;2300;51.874;8.430;2023-05-10T14:18:04;26.25;;;17.85;;
4575;SDS011;2300;51.874;8.430;2023-05-10T14:20:38;26.92;;;18.25;;
4575;SDS011;2300;51.874;8.430;2023-05-10T14:23:05;27.42;;;18.25;;
4575;SDS011;2300;51.874;8.430;2023-05-10T14:25:35;27.38;;;17.85;;
4575;SDS011;2300;51.874;8.430;2023-05-10T14:28:04;27.15;;;18.27;;
4575;SDS011;2300;51.874;8.430;2023-05-10T14:30:31;28.13;;;17.83;;
4575;SDS011;2300;51.874;8.430;2023-05-10T14:32:59;29.10;;;16.98;;
4575;SDS011;2300;51.874;8.430;2023-05-10T14:35:27;31.98;;;19.05;;
4575;SDS011;2300;51.874;8.430;2023-05-10T14:37:55;26.40;;;18.17;;
4575;SDS011;2300;51.874;8.430;2023-05-10T14:40:22;29.20;;;18.13;;
4575;SDS011;2300;51.874;8.430;2023-05-10T14:42:49;28.75;;;18.05;;
4575;SDS011;2300;51.874;8.430;2023-05-10T14:45:20;28.30;;;19.02;;
4575;SDS011;2300;51.874;8.430;2023-05-10T14:47:47;26.38;;;17.85;;
4575;SDS011;2300;51.874;8.430;2023-05-10T14:50:14;25.50;;;18.02;;
4575;SDS011;2300;51.874;8.430;2023-05-10T14:52:41;24.33;;;17.80;;
4575;SDS011;2300;51.874;8.430;2023-05-10T14:55:09;32.30;;;18.85;;
4575;SDS011;2300;51.874;8.430;2023-05-10T14:57:36;29.88;;;18.35;;
4575;SDS011;2300;51.874;8.430;2023-05-10T15:00:03;26.25;;;16.75;;
4575;SDS011;2300;51.874;8.430;2023-05-10T15:02:31;28.13;;;18.63;;
4575;SDS011;2300;51.874;8.430;2023-05-10T15:04:59;31.90;;;17.83;;
4575;SDS011;2300;51.874;8.430;2023-05-10T15:07:25;27.50;;;18.10;;
4575;SDS011;2300;51.874;8.430;2023-05-10T15:09:52;29.40;;;18.35;;
4575;SDS011;2300;51.874;8.430;2023-05-10T15:12:19;27.88;;;18.35;;
4575;SDS011;2300;51.874;8.430;2023-05-10T15:14:47;30.00;;;20.50;;